Time;durP1;ratioP1;P1;durP2;ratioP2;P2;SDS_P1;SDS_P2;PMS_P1;PMS_P2;Temp;Humidity;BMP_temperature;BMP_pressure;BME280_temperature;BME280_humidity;BME280_pressure;Samples;Min_cycle;Max_cycle;Signal;HPM_P1;HPM_P2
2022/01/23 00:01:41;;;;;;;6.13;3.10;;;6.00;99.90;;;;;;5035495;28;20187;-72
2022/01/23 00:04:08;;;;;;;4.40;2.25;;;6.00;99.90;;;;;;5049433;28;20081;-72
2022/01/23 00:06:34;;;;;;;5.13;2.20;;;6.00;99.90;;;;;;5050113;28;20527;-72
2022/01/23 00:09:03;;;;;;;4.00;2.10;;;6.00;99.90;;;;;;5052533;28;20495;-71
2022/01/23 00:11:31;;;;;;;6.95;3.08;;;5.90;99.90;;;;;;5054916;28;20080;-72
2022/01/23 00:19:27;;;;;;;6.10;2.75;;;5.90;99.90;;;;;;5049766;28;20047;-72
2022/01/23 00:21:57;;;;;;;6.10;2.72;;;5.90;99.90;;;;;;5074967;28;20404;-72
2022/01/23 00:32:38;;;;;;;5.57;2.78;;;5.90;99.90;;;;;;5074137;28;20117;-72
2022/01/23 00:35:06;;;;;;;9.52;2.97;;;5.90;99.90;;;;;;5091943;28;20142;-72
2022/01/23 00:37:32;;;;;;;6.95;2.80;;;5.90;99.90;;;;;;5061495;28;20095;-72
2022/01/23 00:40:00;;;;;;;7.95;2.90;;;5.90;99.90;;;;;;5054913;28;20045;-73
2022/01/23 00:42:28;;;;;;;9.00;3.40;;;5.90;99.90;;;;;;5054219;28;20102;-73
2022/01/23 00:45:02;;;;;;;9.48;3.63;;;5.80;99.90;;;;;;5054026;28;20088;-72
2022/01/23 00:47:31;;;;;;;4.47;3.20;;;5.90;99.90;;;;;;5054548;28;20111;-72
2022/01/23 00:49:58;;;;;;;10.68;3.75;;;5.80;99.90;;;;;;5054608;28;20052;-73
2022/01/23 00:52:25;;;;;;;6.20;2.78;;;5.90;99.90;;;;;;5053445;28;20102;-73
2022/01/23 00:54:52;;;;;;;7.35;3.58;;;5.90;99.90;;;;;;5054444;28;20554;-73
2022/01/23 00:57:20;;;;;;;6.07;3.00;;;5.90;99.90;;;;;;5054398;28;20056;-72
2022/01/23 00:59:47;;;;;;;11.75;3.97;;;5.90;99.90;;;;;;5053767;28;20060;-73
2022/01/23 01:02:14;;;;;;;6.60;3.08;;;5.90;99.90;;;;;;5053723;28;20094;-73
2022/01/23 01:04:40;;;;;;;8.60;3.65;;;5.90;99.90;;;;;;5057809;28;20080;-72
2022/01/23 01:07:07;;;;;;;5.30;3.75;;;5.90;99.90;;;;;;5073611;28;20553;-73
2022/01/23 01:09:34;;;;;;;4.95;3.35;;;5.90;99.90;;;;;;5090863;28;20052;-73
2022/01/23 01:12:04;;;;;;;7.85;3.80;;;5.90;99.90;;;;;;5072965;28;20080;-73
2022/01/23 01:14:59;;;;;;;7.55;3.95;;;5.90;99.90;;;;;;5071355;28;20131;-72
2022/01/23 01:17:38;;;;;;;6.70;3.20;;;5.80;99.90;;;;;;5033767;28;20529;-73
2022/01/23 01:31:22;;;;;;;6.60;4.13;;;5.90;99.90;;;;;;4998764;28;20111;-72
2022/01/23 01:33:53;;;;;;;7.68;3.92;;;5.90;99.90;;;;;;5032879;28;20064;-72
2022/01/23 01:36:26;;;;;;;8.20;3.33;;;5.90;99.90;;;;;;5051236;28;20150;-72
2022/01/23 01:38:53;;;;;;;7.80;3.92;;;5.90;99.90;;;;;;5053526;28;20052;-72
2022/01/23 01:41:21;;;;;;;9.57;3.60;;;5.90;99.90;;;;;;5053013;28;20081;-71
2022/01/23 01:43:49;;;;;;;7.38;3.75;;;5.80;99.90;;;;;;5053387;28;20053;-72
2022/01/23 01:46:18;;;;;;;10.75;4.43;;;5.90;99.90;;;;;;5053297;28;20056;-72
2022/01/23 01:48:45;;;;;;;10.07;4.38;;;5.80;99.90;;;;;;5054037;28;20448;-73
2022/01/23 01:51:15;;;;;;;6.32;3.70;;;5.90;99.90;;;;;;5053219;28;20065;-73
2022/01/23 01:53:47;;;;;;;6.85;3.85;;;5.80;99.90;;;;;;5053193;28;20071;-72
2022/01/23 01:56:14;;;;;;;6.97;4.15;;;5.80;99.90;;;;;;5052491;28;20092;-72
2022/01/23 01:59:10;;;;;;;7.38;3.97;;;5.80;99.90;;;;;;5053350;28;20057;-72
2022/01/23 02:09:51;;;;;;;8.30;4.00;;;5.80;99.90;;;;;;5072548;28;20079;-72
2022/01/23 02:12:54;;;;;;;6.97;3.70;;;5.70;99.90;;;;;;5088924;28;20045;-72
2022/01/23 02:15:39;;;;;;;9.63;4.32;;;5.70;99.90;;;;;;5063557;28;20056;-72
2022/01/23 02:18:21;;;;;;;10.00;5.25;;;5.70;99.90;;;;;;5052506;28;20052;-72
2022/01/23 02:23:58;;;;;;;8.85;4.22;;;5.70;99.90;;;;;;5052355;28;20068;-72
2022/01/23 02:51:30;;;;;;;8.23;4.22;;;5.80;99.90;;;;;;5071626;28;20407;-73
2022/01/23 02:56:44;;;;;;;11.35;4.00;;;5.80;99.90;;;;;;5068213;28;20549;-73
2022/01/23 02:59:19;;;;;;;10.95;4.15;;;5.80;99.90;;;;;;5084560;28;20110;-72
2022/01/23 03:02:00;;;;;;;7.95;4.07;;;5.80;99.90;;;;;;5052081;28;20049;-72
2022/01/23 03:04:27;;;;;;;7.97;3.88;;;5.80;99.90;;;;;;5051087;28;20141;-72
2022/01/23 03:07:09;;;;;;;12.05;4.07;;;5.80;99.90;;;;;;5051826;28;20060;-72
2022/01/23 03:09:58;;;;;;;5.70;3.22;;;5.80;99.90;;;;;;5051771;28;20053;-72
2022/01/23 03:15:19;;;;;;;14.68;4.50;;;5.80;99.90;;;;;;5046190;28;20134;-72
2022/01/23 03:29:04;;;;;;;7.22;3.33;;;5.70;99.90;;;;;;5066860;28;20066;-72
2022/01/23 03:31:41;;;;;;;9.50;4.03;;;5.70;99.90;;;;;;5088159;28;20052;-72
2022/01/23 03:34:08;;;;;;;9.77;5.22;;;5.80;99.90;;;;;;5070425;28;20139;-72
2022/01/23 03:36:36;;;;;;;8.98;5.03;;;5.70;99.90;;;;;;5088620;28;20048;-72
2022/01/23 03:39:06;;;;;;;10.10;5.53;;;5.70;99.90;;;;;;5071836;28;20412;-72
2022/01/23 03:41:35;;;;;;;9.48;4.82;;;5.70;99.90;;;;;;5071222;28;20157;-73
2022/01/23 03:44:04;;;;;;;7.13;3.70;;;5.70;99.90;;;;;;5073546;28;20118;-73
2022/01/23 03:46:49;;;;;;;9.27;4.93;;;5.70;99.90;;;;;;5075915;28;20477;-73
2022/01/23 03:49:32;;;;;;;6.95;4.07;;;5.80;99.90;;;;;;5075550;28;20066;-73
2022/01/23 03:52:04;;;;;;;9.82;4.28;;;5.70;99.90;;;;;;5092435;28;20048;-73
2022/01/23 03:54:31;;;;;;;10.43;4.47;;;5.70;99.90;;;;;;5074797;28;20048;-73
2022/01/23 03:57:01;;;;;;;10.40;4.95;;;5.70;99.90;;;;;;5076108;28;20053;-73
2022/01/23 03:59:29;;;;;;;12.02;5.28;;;5.70;99.90;;;;;;5055152;28;20106;-73
2022/01/23 04:01:56;;;;;;;7.18;4.70;;;5.70;99.90;;;;;;5055806;28;20084;-72
2022/01/23 04:04:39;;;;;;;9.93;4.93;;;5.70;99.90;;;;;;5055333;28;20052;-72
2022/01/23 04:07:08;;;;;;;8.00;4.93;;;5.70;99.90;;;;;;5055148;28;20051;-72
2022/01/23 04:09:36;;;;;;;14.00;5.60;;;5.70;99.90;;;;;;5037000;28;20099;-72
2022/01/23 04:12:06;;;;;;;11.50;5.35;;;5.70;99.90;;;;;;5035263;28;20412;-72
2022/01/23 04:14:35;;;;;;;6.87;4.37;;;5.70;99.90;;;;;;5039116;28;20123;-73
2022/01/23 04:17:35;;;;;;;8.18;4.65;;;5.70;99.90;;;;;;5071280;28;20057;-72
2022/01/23 04:33:55;;;;;;;9.50;4.90;;;5.70;99.90;;;;;;5074597;28;20139;-72
2022/01/23 05:01:12;;;;;;;9.73;5.28;;;5.60;99.90;;;;;;5054197;28;20048;-72
2022/01/23 05:06:25;;;;;;;8.50;5.05;;;5.60;99.90;;;;;;5055156;28;20052;-72
2022/01/23 05:08:53;;;;;;;8.90;4.72;;;5.60;99.90;;;;;;5053857;28;20059;-72
2022/01/23 05:11:20;;;;;;;10.25;5.30;;;5.60;99.90;;;;;;5053390;28;20084;-72
2022/01/23 05:13:47;;;;;;;8.85;5.18;;;5.60;99.90;;;;;;5053853;28;20543;-72
2022/01/23 05:16:16;;;;;;;8.85;5.60;;;5.60;99.90;;;;;;5053672;28;20131;-72
2022/01/23 05:18:42;;;;;;;7.88;5.00;;;5.60;99.90;;;;;;5070017;28;20102;-72
2022/01/23 05:21:37;;;;;;;10.32;4.20;;;5.60;99.90;;;;;;5066990;28;20102;-72
2022/01/23 05:24:05;;;;;;;7.93;4.40;;;5.60;99.90;;;;;;5073864;28;20552;-71
2022/01/23 05:26:36;;;;;;;11.13;5.18;;;5.60;99.90;;;;;;5072821;28;20055;-70
2022/01/23 05:29:03;;;;;;;10.55;4.20;;;5.60;99.90;;;;;;5090740;28;20149;-71
2022/01/23 05:31:31;;;;;;;7.95;5.13;;;5.60;99.90;;;;;;5090486;28;20546;-72
2022/01/23 05:33:58;;;;;;;8.25;5.03;;;5.60;99.90;;;;;;5074186;28;20145;-72
2022/01/23 05:36:24;;;;;;;10.55;4.95;;;5.80;99.90;;;;;;5090278;28;20404;-71
2022/01/23 05:38:51;;;;;;;7.93;4.68;;;5.60;99.90;;;;;;5090372;28;20492;-71
2022/01/23 05:41:18;;;;;;;10.35;4.88;;;5.60;99.90;;;;;;5088993;28;20641;-72
2022/01/23 05:43:45;;;;;;;8.50;4.40;;;5.60;99.90;;;;;;5073661;28;20400;-72
2022/01/23 05:46:12;;;;;;;9.77;5.38;;;5.60;99.90;;;;;;5089612;28;20094;-72
2022/01/23 05:48:40;;;;;;;10.38;5.38;;;5.60;99.90;;;;;;5082014;28;20102;-72
2022/01/23 05:51:12;;;;;;;10.65;5.97;;;5.60;99.90;;;;;;5052878;28;20493;-73
2022/01/23 05:53:39;;;;;;;9.57;5.78;;;5.60;99.90;;;;;;5069210;28;20053;-72
2022/01/23 05:56:06;;;;;;;10.15;5.30;;;5.60;99.90;;;;;;5053268;28;20049;-72
2022/01/23 05:58:33;;;;;;;9.40;5.43;;;5.60;99.90;;;;;;5053207;28;20102;-73
2022/01/23 06:01:00;;;;;;;10.38;5.50;;;5.60;99.90;;;;;;5052938;28;20048;-73
2022/01/23 06:03:26;;;;;;;9.52;5.40;;;5.60;99.90;;;;;;5053545;28;20108;-73
2022/01/23 06:05:55;;;;;;;11.38;5.68;;;5.60;99.90;;;;;;5052198;28;20076;-73
2022/01/23 06:08:23;;;;;;;11.70;6.22;;;5.60;99.90;;;;;;5053066;28;20485;-73
2022/01/23 06:10:56;;;;;;;12.98;5.38;;;5.60;99.90;;;;;;5055807;28;20048;-72
2022/01/23 06:13:23;;;;;;;10.05;5.63;;;5.60;99.90;;;;;;5057165;28;20087;-73
2022/01/23 06:15:50;;;;;;;12.88;5.82;;;5.60;99.90;;;;;;5056496;28;20492;-73
2022/01/23 06:18:17;;;;;;;10.85;6.35;;;5.60;99.90;;;;;;5056110;28;20107;-73
2022/01/23 06:20:44;;;;;;;10.73;6.43;;;5.60;99.90;;;;;;5062507;28;20051;-73
2022/01/23 06:23:12;;;;;;;11.95;5.60;;;5.50;99.90;;;;;;5077805;28;20067;-73
2022/01/23 06:25:43;;;;;;;13.23;5.90;;;5.50;99.90;;;;;;5078076;28;20049;-73
2022/01/23 06:28:10;;;;;;;9.73;6.05;;;5.50;99.90;;;;;;5077728;28;20039;-72
2022/01/23 06:30:38;;;;;;;11.95;6.25;;;5.50;99.90;;;;;;5077570;28;20053;-72
2022/01/23 06:33:06;;;;;;;10.18;5.90;;;5.50;99.90;;;;;;5078342;28;20116;-71
2022/01/23 06:35:35;;;;;;;9.60;6.28;;;5.40;99.90;;;;;;5077599;28;20100;-72
2022/01/23 06:38:02;;;;;;;9.10;6.18;;;5.40;99.90;;;;;;5078407;28;20049;-71
2022/01/23 06:40:30;;;;;;;12.27;6.22;;;5.60;99.90;;;;;;5077800;28;20047;-71
2022/01/23 06:42:57;;;;;;;8.73;5.93;;;5.40;99.90;;;;;;5075949;28;20539;-72
2022/01/23 06:45:24;;;;;;;12.30;6.40;;;5.40;99.90;;;;;;5059632;28;20053;-72
2022/01/23 06:47:51;;;;;;;12.68;6.55;;;5.40;99.90;;;;;;5052433;28;20107;-72
2022/01/23 06:50:18;;;;;;;9.55;6.13;;;5.40;99.90;;;;;;5051214;28;20098;-71
2022/01/23 06:52:45;;;;;;;11.32;6.00;;;5.30;99.90;;;;;;5051929;28;20134;-71
2022/01/23 06:55:12;;;;;;;9.63;6.57;;;5.30;99.90;;;;;;5052145;28;20045;-72
2022/01/23 06:57:40;;;;;;;10.93;6.72;;;5.20;99.90;;;;;;5051598;28;20064;-72
2022/01/23 07:00:08;;;;;;;10.32;6.57;;;5.20;99.90;;;;;;5058106;28;20441;-72
2022/01/23 07:02:35;;;;;;;10.02;6.05;;;5.10;99.90;;;;;;5071623;28;20044;-73
2022/01/23 07:05:02;;;;;;;10.32;6.32;;;5.10;99.90;;;;;;5088477;28;20408;-72
2022/01/23 07:07:29;;;;;;;12.30;6.18;;;5.10;99.90;;;;;;5088819;28;20056;-72
2022/01/23 07:09:56;;;;;;;10.82;7.13;;;5.10;99.90;;;;;;5071633;28;20052;-73
2022/01/23 07:12:22;;;;;;;13.43;6.50;;;5.00;99.90;;;;;;5071049;28;20510;-73
2022/01/23 07:14:51;;;;;;;9.95;6.40;;;5.00;99.90;;;;;;5083593;28;20400;-72
2022/01/23 07:17:17;;;;;;;13.13;6.32;;;4.90;99.90;;;;;;5052665;28;20091;-73
2022/01/23 07:19:44;;;;;;;12.05;6.28;;;4.90;99.90;;;;;;5052314;28;20492;-72
2022/01/23 07:22:11;;;;;;;12.85;7.05;;;4.90;99.90;;;;;;5067953;28;20084;-72
2022/01/23 07:24:38;;;;;;;10.48;6.60;;;4.90;99.90;;;;;;5068191;28;20053;-73
2022/01/23 07:27:13;;;;;;;12.40;6.43;;;4.90;99.90;;;;;;5068385;28;20102;-72
2022/01/23 07:29:42;;;;;;;11.15;6.15;;;4.90;99.90;;;;;;5067447;28;20052;-72
2022/01/23 07:32:11;;;;;;;10.93;6.93;;;4.90;99.90;;;;;;5070453;28;20167;-72
2022/01/23 07:34:38;;;;;;;11.48;7.30;;;4.90;99.90;;;;;;5072714;28;20048;-71
2022/01/23 07:37:05;;;;;;;10.90;6.50;;;4.90;99.90;;;;;;5071679;28;20411;-72
2022/01/23 07:39:32;;;;;;;9.90;6.30;;;4.90;99.90;;;;;;5071135;28;20113;-72
2022/01/23 07:41:59;;;;;;;9.68;6.57;;;4.90;99.90;;;;;;5072477;28;20048;-72
2022/01/23 07:44:25;;;;;;;8.77;4.97;;;4.80;99.90;;;;;;5065677;28;20061;-72
2022/01/23 07:46:52;;;;;;;9.07;5.60;;;4.80;99.90;;;;;;5051063;28;20110;-72
2022/01/23 07:49:21;;;;;;;10.10;5.60;;;4.90;99.90;;;;;;5052628;28;20084;-73
2022/01/23 07:51:47;;;;;;;7.35;5.00;;;4.90;99.90;;;;;;5051321;28;20049;-72
2022/01/23 07:54:14;;;;;;;7.32;4.90;;;4.90;99.90;;;;;;5050584;28;20150;-73
2022/01/23 07:56:42;;;;;;;9.73;5.65;;;4.90;99.90;;;;;;5057845;28;20110;-72
2022/01/23 07:59:09;;;;;;;7.57;5.00;;;4.90;99.90;;;;;;5088313;28;20096;-73
2022/01/23 08:01:39;;;;;;;7.93;4.53;;;5.00;99.90;;;;;;5070502;28;20051;-72
2022/01/23 08:04:06;;;;;;;8.48;5.10;;;5.00;99.90;;;;;;5071727;28;20106;-73
2022/01/23 08:06:40;;;;;;;7.82;5.10;;;5.00;99.90;;;;;;5088076;28;20049;-73
2022/01/23 08:09:07;;;;;;;7.95;4.78;;;5.10;99.90;;;;;;5087753;28;20091;-72
2022/01/23 08:11:34;;;;;;;9.27;4.65;;;5.20;99.90;;;;;;5072232;28;20052;-72
2022/01/23 08:14:01;;;;;;;8.00;4.75;;;5.20;99.90;;;;;;5087320;28;20469;-72
2022/01/23 08:16:28;;;;;;;10.25;5.18;;;5.30;99.90;;;;;;5052433;28;20053;-72
2022/01/23 08:18:55;;;;;;;9.27;5.07;;;5.30;99.90;;;;;;5067885;28;20048;-72
2022/01/23 08:21:22;;;;;;;7.10;4.18;;;5.30;99.90;;;;;;5067411;28;20136;-72
2022/01/23 08:23:52;;;;;;;6.45;4.25;;;5.40;99.90;;;;;;5068061;28;20053;-72
2022/01/23 08:26:21;;;;;;;;;;;5.50;99.90;;;;;;5087690;28;20161;-72
2022/01/23 08:28:48;;;;;;;7.47;3.85;;;5.50;99.90;;;;;;5072967;28;20338;-71
2022/01/23 08:31:15;;;;;;;6.25;4.13;;;5.50;99.90;;;;;;5091776;28;20049;-72
2022/01/23 08:33:41;;;;;;;5.93;4.20;;;5.50;99.90;;;;;;5091467;28;20048;-72
2022/01/23 08:36:08;;;;;;;6.80;4.45;;;5.60;99.90;;;;;;5073902;28;20056;-72
2022/01/23 08:38:35;;;;;;;6.28;4.68;;;5.60;99.90;;;;;;5074628;28;20109;-73
2022/01/23 08:43:49;;;;;;;6.65;4.63;;;5.70;99.90;;;;;;5072528;28;20048;-72
2022/01/23 08:46:16;;;;;;;10.50;4.43;;;5.70;99.90;;;;;;5075442;28;20040;-72
2022/01/23 08:48:43;;;;;;;7.72;4.78;;;5.70;99.90;;;;;;5086770;28;20056;-71
2022/01/23 08:51:11;;;;;;;8.48;5.00;;;5.70;99.90;;;;;;5062864;28;20586;-72
2022/01/23 08:53:38;;;;;;;8.75;4.75;;;5.70;99.90;;;;;;5051112;28;20041;-72
2022/01/23 08:56:06;;;;;;;8.02;5.28;;;5.80;99.90;;;;;;5053257;28;20126;-73
2022/01/23 08:58:34;;;;;;;7.95;4.85;;;5.80;99.90;;;;;;5053599;28;20107;-73
2022/01/23 09:01:00;;;;;;;8.88;5.38;;;5.80;99.90;;;;;;5053619;28;20052;-73
2022/01/23 09:03:27;;;;;;;11.23;6.30;;;5.80;99.90;;;;;;5053197;28;20444;-73
2022/01/23 09:05:54;;;;;;;9.15;5.10;;;5.90;99.90;;;;;;5054327;28;20485;-73
2022/01/23 09:08:21;;;;;;;7.20;4.75;;;5.90;99.90;;;;;;5053928;28;20053;-72
2022/01/23 09:10:57;;;;;;;8.63;5.07;;;5.90;99.90;;;;;;5053996;28;20505;-73
2022/01/23 09:13:40;;;;;;;8.20;5.18;;;5.90;99.90;;;;;;5051357;28;20140;-73
2022/01/23 09:16:07;;;;;;;7.38;4.95;;;6.00;99.90;;;;;;5068442;28;20111;-73
2022/01/23 09:18:34;;;;;;;8.77;5.10;;;6.10;99.90;;;;;;5052676;28;20457;-72
2022/01/23 09:21:01;;;;;;;8.57;4.40;;;6.30;99.90;;;;;;5053383;28;20049;-72
2022/01/23 09:23:28;;;;;;;5.97;4.20;;;6.50;99.90;;;;;;5052939;28;20497;-72
2022/01/23 09:25:57;;;;;;;7.70;4.07;;;6.70;99.90;;;;;;5052323;28;20114;-73
2022/01/23 09:28:31;;;;;;;5.75;3.72;;;7.00;99.90;;;;;;5056708;28;20049;-73
2022/01/23 09:30:58;;;;;;;8.65;5.15;;;7.10;99.90;;;;;;5049981;28;20049;-74
2022/01/23 09:33:25;;;;;;;5.95;4.05;;;7.10;99.90;;;;;;5052065;28;20053;-73
2022/01/23 09:35:52;;;;;;;4.85;2.85;;;7.20;99.90;;;;;;5052519;28;20048;-74
2022/01/23 09:38:18;;;;;;;5.05;3.35;;;7.20;99.90;;;;;;5046598;28;20551;-74
2022/01/23 09:40:46;;;;;;;5.57;3.35;;;7.20;99.90;;;;;;5052794;28;20130;-74
2022/01/23 09:43:17;;;;;;;5.50;3.40;;;7.20;99.90;;;;;;5053738;28;20098;-74
2022/01/23 09:45:48;;;;;;;4.70;3.03;;;7.20;99.90;;;;;;5052049;28;20110;-74
2022/01/23 09:48:17;;;;;;;5.40;3.28;;;7.30;99.90;;;;;;5054808;28;20118;-74
2022/01/23 09:50:47;;;;;;;4.00;2.60;;;7.30;99.90;;;;;;5052261;28;20500;-74
2022/01/23 09:53:15;;;;;;;4.93;2.70;;;7.40;99.90;;;;;;5053079;28;20454;-74
2022/01/23 09:55:44;;;;;;;4.10;2.50;;;7.50;99.90;;;;;;5053594;28;20045;-74
2022/01/23 09:58:13;;;;;;;4.40;2.78;;;7.50;99.90;;;;;;5052382;28;20048;-74
2022/01/23 10:00:41;;;;;;;4.18;2.50;;;7.60;99.90;;;;;;5049284;28;20099;-74
2022/01/23 10:03:09;;;;;;;4.47;2.58;;;7.70;99.90;;;;;;5052264;28;20095;-74
2022/01/23 10:05:38;;;;;;;4.03;2.42;;;7.70;99.90;;;;;;5052191;28;20466;-74
2022/01/23 10:08:06;;;;;;;5.68;2.60;;;7.70;99.90;;;;;;5051775;28;20106;-74
2022/01/23 10:10:38;;;;;;;5.32;3.03;;;7.70;99.90;;;;;;5053201;28;20063;-74
2022/01/23 10:13:05;;;;;;;3.58;2.53;;;7.60;99.90;;;;;;5052018;28;20056;-74
2022/01/23 10:15:33;;;;;;;4.20;3.13;;;7.60;99.90;;;;;;5051364;28;20044;-74
2022/01/23 10:18:01;;;;;;;3.83;2.47;;;7.60;99.90;;;;;;5052140;28;20059;-73
2022/01/23 10:20:29;;;;;;;3.92;2.55;;;7.60;99.90;;;;;;5052290;28;20115;-74
2022/01/23 10:22:58;;;;;;;3.47;2.47;;;7.60;99.90;;;;;;5051526;28;20048;-74
2022/01/23 10:25:28;;;;;;;3.35;2.25;;;7.60;99.90;;;;;;5051795;28;20053;-73
2022/01/23 10:28:03;;;;;;;4.22;2.58;;;7.50;99.90;;;;;;5051639;28;20063;-73
2022/01/23 10:30:33;;;;;;;4.63;2.30;;;7.60;99.90;;;;;;5051581;28;20456;-73
2022/01/23 10:33:07;;;;;;;4.40;2.97;;;7.50;99.90;;;;;;5054302;28;20057;-73
2022/01/23 10:35:53;;;;;;;5.15;2.92;;;7.50;99.90;;;;;;5050781;28;20075;-73
2022/01/23 10:38:21;;;;;;;3.63;2.38;;;7.60;99.90;;;;;;5049301;28;20420;-73
2022/01/23 10:40:52;;;;;;;5.18;2.70;;;7.50;99.90;;;;;;5051206;28;20072;-73
2022/01/23 10:48:48;;;;;;;4.15;2.92;;;7.60;99.90;;;;;;5050962;28;19924;-73
2022/01/23 10:51:23;;;;;;;3.70;1.92;;;7.70;99.90;;;;;;5050825;28;20052;-74
2022/01/23 10:54:13;;;;;;;5.05;2.38;;;7.80;99.90;;;;;;5050636;28;20045;-73
2022/01/23 10:56:56;;;;;;;4.05;2.47;;;7.70;99.90;;;;;;5048223;28;20448;-75
2022/01/23 10:59:24;;;;;;;9.10;2.40;;;7.80;99.90;;;;;;5049435;28;20063;-73
2022/01/23 11:02:03;;;;;;;3.25;2.10;;;7.90;99.90;;;;;;5051446;28;20057;-73
2022/01/23 11:04:31;;;;;;;3.55;1.60;;;7.90;99.90;;;;;;5065936;28;20045;-73
2022/01/23 11:07:01;;;;;;;3.88;1.58;;;7.80;99.90;;;;;;5051044;28;20049;-74
2022/01/23 11:09:29;;;;;;;;;;;7.80;99.90;;;;;;5051187;28;20459;-74
2022/01/23 11:12:02;;;;;;;3.88;1.80;;;7.80;99.90;;;;;;5051420;28;20289;-74
2022/01/23 11:17:25;;;;;;;4.40;2.05;;;7.90;99.90;;;;;;5066636;28;20128;-74
2022/01/23 11:20:00;;;;;;;3.67;2.30;;;7.90;99.90;;;;;;5050817;28;20408;-74
2022/01/23 11:22:30;;;;;;;4.72;2.13;;;7.90;99.90;;;;;;5065845;28;20548;-74
2022/01/23 11:25:00;;;;;;;3.78;1.95;;;7.90;99.90;;;;;;5050291;28;20041;-73
2022/01/23 11:27:34;;;;;;;3.75;2.13;;;7.90;99.90;;;;;;5050695;28;20107;-73
2022/01/23 11:30:05;;;;;;;3.17;2.00;;;7.90;99.90;;;;;;5048297;28;20041;-73
2022/01/23 11:32:37;;;;;;;3.60;2.05;;;7.90;99.90;;;;;;5050364;28;20087;-72
2022/01/23 11:35:08;;;;;;;3.28;1.85;;;7.90;99.90;;;;;;5050404;28;20481;-73
2022/01/23 11:37:44;;;;;;;3.50;2.15;;;7.80;99.90;;;;;;5050738;28;20053;-73
2022/01/23 11:40:28;;;;;;;3.83;2.15;;;7.80;99.90;;;;;;5050919;28;20052;-72
2022/01/23 11:54:06;;;;;;;3.72;1.90;;;8.00;99.90;;;;;;5025100;28;20049;-73
2022/01/23 11:56:43;;;;;;;3.15;2.00;;;8.10;99.90;;;;;;5051792;28;20094;-73
2022/01/23 11:59:33;;;;;;;2.72;1.80;;;8.10;99.90;;;;;;5050195;28;20052;-74
2022/01/23 12:02:30;;;;;;;4.20;2.60;;;8.10;99.90;;;;;;5051486;28;20044;-74
2022/01/23 12:05:26;;;;;;;3.40;2.25;;;8.10;99.90;;;;;;5067573;28;20570;-74
2022/01/23 12:08:31;;;;;;;3.55;2.00;;;8.20;99.90;;;;;;5054390;28;20127;-74
2022/01/23 12:17:41;;;;;;;3.33;1.90;;;8.20;99.90;;;;;;5071049;28;20051;-75
2022/01/23 12:20:09;;;;;;;3.80;2.10;;;8.20;99.90;;;;;;5052799;28;20045;-73
2022/01/23 12:22:45;;;;;;;3.55;1.73;;;8.20;99.90;;;;;;5054220;28;20049;-75
2022/01/23 12:25:31;;;;;;;3.08;1.75;;;8.20;99.90;;;;;;5054505;28;20049;-75
2022/01/23 12:28:14;;;;;;;4.47;2.20;;;8.10;99.90;;;;;;5053897;28;20049;-75
2022/01/23 12:30:44;;;;;;;3.45;1.95;;;8.10;99.90;;;;;;5051788;28;20075;-74
2022/01/23 12:33:31;;;;;;;3.38;1.95;;;8.10;99.90;;;;;;5053511;28;20140;-74
2022/01/23 12:36:03;;;;;;;4.25;1.80;;;8.10;99.90;;;;;;5054119;28;20045;-73
2022/01/23 12:38:37;;;;;;;3.95;2.25;;;8.20;99.90;;;;;;5055012;28;20113;-73
2022/01/23 12:41:21;;;;;;;3.58;1.90;;;8.20;99.90;;;;;;5048379;28;20455;-73
2022/01/23 12:43:51;;;;;;;5.43;2.30;;;8.20;99.90;;;;;;5052103;28;20087;-73
2022/01/23 12:46:40;;;;;;;3.63;2.10;;;8.20;99.90;;;;;;5053827;28;20045;-73
2022/01/23 12:49:22;;;;;;;6.32;2.13;;;8.20;99.90;;;;;;5049908;28;20110;-74
2022/01/23 12:51:51;;;;;;;2.83;2.00;;;8.20;99.90;;;;;;5068895;28;20049;-74
2022/01/23 12:54:31;;;;;;;2.47;1.83;;;8.10;99.90;;;;;;5054145;28;20103;-73
2022/01/23 12:57:08;;;;;;;2.67;1.73;;;8.00;99.90;;;;;;5053491;28;20327;-74
2022/01/23 12:59:38;;;;;;;4.20;2.25;;;8.00;99.90;;;;;;5054706;28;20096;-74
2022/01/23 13:02:12;;;;;;;5.15;2.22;;;8.00;99.90;;;;;;5054369;28;20087;-74
2022/01/23 13:04:42;;;;;;;3.38;2.15;;;8.00;99.90;;;;;;5052651;28;20045;-74
2022/01/23 13:07:18;;;;;;;4.03;2.20;;;8.00;99.90;;;;;;5056242;28;20045;-73
2022/01/23 13:09:51;;;;;;;4.15;2.10;;;8.00;99.90;;;;;;5050933;28;20052;-74
2022/01/23 13:12:33;;;;;;;4.32;2.20;;;7.90;99.90;;;;;;5054192;28;20073;-74
2022/01/23 13:15:19;;;;;;;3.80;2.22;;;7.90;99.90;;;;;;5049733;28;20044;-74
2022/01/23 13:17:56;;;;;;;6.13;2.50;;;7.90;99.90;;;;;;5051244;28;20060;-74
2022/01/23 13:31:46;;;;;;;6.05;2.70;;;7.90;99.90;;;;;;5049529;28;20388;-70
2022/01/23 13:34:27;;;;;;;5.72;2.92;;;7.90;99.90;;;;;;5052032;28;20115;-69
2022/01/23 13:36:56;;;;;;;3.67;2.65;;;7.90;99.90;;;;;;5052266;28;20075;-69
2022/01/23 13:39:24;;;;;;;4.00;2.67;;;7.80;99.90;;;;;;5049588;28;20110;-68
2022/01/23 13:42:11;;;;;;;5.45;3.03;;;7.80;99.90;;;;;;5051904;28;20041;-69
2022/01/23 13:53:10;;;;;;;5.68;2.75;;;7.80;99.90;;;;;;5067441;28;20052;-68
2022/01/23 13:58:37;;;;;;;6.32;3.22;;;7.70;99.90;;;;;;5066369;28;20488;-69
2022/01/23 14:01:19;;;;;;;4.35;2.78;;;7.70;99.90;;;;;;5049047;28;20048;-69
2022/01/23 14:03:47;;;;;;;4.13;2.65;;;7.70;99.90;;;;;;5067034;28;20550;-68
2022/01/23 14:06:14;;;;;;;5.25;2.65;;;7.70;99.90;;;;;;5051409;28;20100;-68
2022/01/23 14:08:41;;;;;;;4.03;2.78;;;7.70;99.90;;;;;;5049783;28;20451;-69
2022/01/23 14:11:08;;;;;;;5.90;3.22;;;7.70;99.90;;;;;;5051447;28;20049;-68
2022/01/23 14:13:35;;;;;;;6.68;3.50;;;7.70;99.90;;;;;;5051883;28;20570;-70
2022/01/23 14:16:02;;;;;;;5.43;3.60;;;7.60;99.90;;;;;;5051698;28;20452;-69
2022/01/23 14:18:31;;;;;;;5.30;3.55;;;7.60;99.90;;;;;;5053218;28;20052;-68
2022/01/23 14:21:01;;;;;;;4.80;3.40;;;7.60;99.90;;;;;;5052164;28;20106;-68
2022/01/23 14:23:29;;;;;;;5.45;3.45;;;7.60;99.90;;;;;;5052720;28;20049;-69
2022/01/23 14:25:58;;;;;;;5.95;3.53;;;7.60;99.90;;;;;;5051920;28;20175;-68
2022/01/23 14:28:28;;;;;;;5.93;3.20;;;7.70;99.90;;;;;;5050494;28;20522;-68
2022/01/23 14:30:58;;;;;;;5.78;3.40;;;7.60;99.90;;;;;;5051595;28;20052;-67
2022/01/23 14:33:29;;;;;;;5.37;3.63;;;7.60;99.90;;;;;;5052391;28;20057;-69
2022/01/23 14:35:59;;;;;;;6.45;3.47;;;7.60;99.90;;;;;;5051854;28;20386;-68
2022/01/23 14:38:27;;;;;;;5.53;3.65;;;7.60;99.90;;;;;;5051400;28;20098;-69
2022/01/23 14:40:57;;;;;;;6.90;3.60;;;7.60;99.90;;;;;;5051088;28;20412;-68
2022/01/23 14:43:31;;;;;;;5.73;3.73;;;7.60;99.90;;;;;;5050891;28;20098;-68
2022/01/23 14:45:59;;;;;;;4.95;3.40;;;7.50;99.90;;;;;;5050986;28;20282;-68
2022/01/23 14:48:26;;;;;;;6.40;3.40;;;7.50;99.90;;;;;;5051155;28;20094;-68
2022/01/23 14:50:55;;;;;;;5.95;3.28;;;7.50;99.90;;;;;;5049984;28;20389;-69
2022/01/23 14:53:25;;;;;;;5.80;3.60;;;7.40;99.90;;;;;;5065374;28;20132;-69
2022/01/23 14:55:55;;;;;;;5.95;3.53;;;7.50;99.90;;;;;;5050839;28;20126;-69
2022/01/23 14:58:22;;;;;;;5.63;3.53;;;7.50;99.90;;;;;;5048085;28;20103;-68
2022/01/23 15:00:50;;;;;;;7.40;3.40;;;7.50;99.90;;;;;;5050947;28;20056;-69
2022/01/23 15:03:18;;;;;;;6.13;3.53;;;7.50;99.90;;;;;;5051681;28;20045;-69
2022/01/23 15:05:44;;;;;;;5.28;3.08;;;7.40;99.90;;;;;;5052550;28;20098;-69
2022/01/23 15:08:13;;;;;;;4.20;2.60;;;7.40;99.90;;;;;;5051176;28;20114;-68
2022/01/23 15:10:44;;;;;;;5.28;3.05;;;7.40;99.90;;;;;;5050874;28;20084;-68
2022/01/23 15:13:12;;;;;;;5.78;3.05;;;7.30;99.90;;;;;;5051487;28;20045;-68
2022/01/23 15:15:39;;;;;;;5.15;3.35;;;7.30;99.90;;;;;;5051110;28;20099;-69
2022/01/23 15:18:07;;;;;;;4.45;3.15;;;7.30;99.90;;;;;;5050910;28;20053;-69
2022/01/23 15:20:35;;;;;;;6.38;3.30;;;7.30;99.90;;;;;;5052159;28;20051;-68
2022/01/23 15:23:02;;;;;;;7.32;3.72;;;7.30;99.90;;;;;;5048485;28;20072;-68
2022/01/23 15:25:29;;;;;;;5.22;3.42;;;7.30;99.90;;;;;;5050424;28;20095;-68
2022/01/23 15:27:58;;;;;;;8.27;4.35;;;7.20;99.90;;;;;;5052849;28;20158;-68
2022/01/23 15:30:26;;;;;;;6.30;3.25;;;7.20;99.90;;;;;;5050642;28;20159;-68
2022/01/23 15:32:53;;;;;;;6.45;3.75;;;7.20;99.90;;;;;;5050757;28;20136;-67
2022/01/23 15:35:21;;;;;;;9.88;4.00;;;7.10;99.90;;;;;;5050573;28;20041;-68
2022/01/23 15:37:49;;;;;;;6.25;3.70;;;7.10;99.90;;;;;;5051812;28;20080;-68
2022/01/23 15:40:18;;;;;;;5.90;3.65;;;7.10;99.90;;;;;;5057558;28;20505;-68
2022/01/23 15:42:46;;;;;;;5.75;3.58;;;7.10;99.90;;;;;;5057576;28;20053;-68
2022/01/23 15:45:15;;;;;;;5.90;3.40;;;7.10;99.90;;;;;;5056952;28;20106;-68
2022/01/23 15:47:42;;;;;;;7.80;3.28;;;7.00;99.90;;;;;;5074347;28;20049;-68
2022/01/23 15:50:11;;;;;;;7.15;3.45;;;7.00;99.90;;;;;;5057377;28;20076;-68
2022/01/23 15:52:38;;;;;;;7.72;3.78;;;7.00;99.90;;;;;;5056491;28;20053;-67
2022/01/23 15:55:06;;;;;;;7.53;3.53;;;7.00;99.90;;;;;;5057112;28;20135;-69
2022/01/23 15:57:33;;;;;;;5.55;3.30;;;7.00;99.90;;;;;;5058877;28;20049;-69
2022/01/23 16:00:00;;;;;;;6.25;3.40;;;7.00;99.90;;;;;;5056816;28;20049;-68
2022/01/23 16:02:28;;;;;;;5.32;3.40;;;7.00;99.90;;;;;;5057260;28;20448;-68
2022/01/23 16:04:55;;;;;;;7.50;3.58;;;6.90;99.90;;;;;;5057123;28;20053;-68